Time;durP1;ratioP1;P1;durP2;ratioP2;P2;SDS_P1;SDS_P2;PMS_P1;PMS_P2;Temp;Humidity;BMP_temperature;BMP_pressure;BME280_temperature;BME280_humidity;BME280_pressure;Samples;Min_cycle;Max_cycle;Signal;HPM_P1;HPM_P2
2021/10/31 00:02:03;;;;;;;36.08;32.65;;;;;;;;;;5068464;28;20102;-42
2021/10/31 00:04:30;;;;;;;33.70;30.83;;;;;;;;;;5072013;28;20072;-41
2021/10/31 00:06:56;;;;;;;33.13;30.50;;;;;;;;;;5070756;28;20119;-42
2021/10/31 00:09:23;;;;;;;32.75;30.38;;;;;;;;;;5072913;28;20455;-40
2021/10/31 00:11:50;;;;;;;32.22;29.48;;;;;;;;;;5072090;28;20427;-42
2021/10/31 00:14:17;;;;;;;30.52;28.20;;;;;;;;;;5071771;28;20044;-40
2021/10/31 00:16:44;;;;;;;32.50;30.13;;;;;;;;;;5071400;28;20065;-40
2021/10/31 00:19:11;;;;;;;30.67;28.42;;;;;;;;;;5070557;28;20044;-40
2021/10/31 00:21:38;;;;;;;31.65;29.23;;;;;;;;;;5072558;28;20071;-41
2021/10/31 00:24:05;;;;;;;31.42;29.20;;;;;;;;;;5073079;28;20042;-40
2021/10/31 00:26:33;;;;;;;31.92;29.55;;;;;;;;;;5072328;28;20045;-40
2021/10/31 00:28:59;;;;;;;32.72;30.00;;;;;;;;;;5059563;28;20358;-40
2021/10/31 00:31:26;;;;;;;31.77;29.35;;;;;;;;;;5073787;28;20090;-40
2021/10/31 00:33:53;;;;;;;29.67;26.95;;;;;;;;;;5071914;28;20039;-41
2021/10/31 00:36:20;;;;;;;34.17;31.52;;;;;;;;;;5073835;28;20449;-43
2021/10/31 00:38:47;;;;;;;31.80;29.40;;;;;;;;;;5071974;28;20055;-41
2021/10/31 00:41:14;;;;;;;32.55;30.17;;;;;;;;;;5072674;28;20139;-41
2021/10/31 00:43:42;;;;;;;36.60;33.42;;;;;;;;;;5070986;28;20067;-41
2021/10/31 00:46:08;;;;;;;32.63;30.13;;;;;;;;;;5070576;28;20482;-41
2021/10/31 00:48:35;;;;;;;34.83;31.85;;;;;;;;;;5072002;28;20511;-40
2021/10/31 00:51:02;;;;;;;33.15;30.27;;;;;;;;;;5069593;28;20051;-41
2021/10/31 00:53:30;;;;;;;34.03;31.17;;;;;;;;;;5073216;28;20029;-41
2021/10/31 00:55:57;;;;;;;32.50;29.90;;;;;;;;;;5068648;28;20053;-40
2021/10/31 00:58:24;;;;;;;34.13;31.67;;;;;;;;;;5056703;28;20452;-41
2021/10/31 01:00:51;;;;;;;33.90;31.55;;;;;;;;;;5070548;28;20044;-42
2021/10/31 01:03:18;;;;;;;31.25;28.65;;;;;;;;;;5061431;28;20534;-41
2021/10/31 01:05:49;;;;;;;31.20;28.98;;;;;;;;;;5072952;28;20049;-41
2021/10/31 01:08:19;;;;;;;30.90;28.73;;;;;;;;;;5068304;28;20098;-41
2021/10/31 01:11:05;;;;;;;31.27;28.92;;;;;;;;;;5060610;28;20041;-40
2021/10/31 01:13:34;;;;;;;29.33;27.33;;;;;;;;;;5071011;28;20078;-40
2021/10/31 01:16:20;;;;;;;31.80;29.42;;;;;;;;;;5068110;28;20040;-41
2021/10/31 01:18:59;;;;;;;32.28;29.95;;;;;;;;;;5065448;28;20485;-40
2021/10/31 01:21:44;;;;;;;32.22;29.98;;;;;;;;;;5071501;28;20045;-41
2021/10/31 01:24:37;;;;;;;34.53;31.98;;;;;;;;;;5060262;28;20041;-41
2021/10/31 01:27:42;;;;;;;33.35;30.98;;;;;;;;;;5069291;28;20056;-41
2021/10/31 01:30:21;;;;;;;33.30;30.83;;;;;;;;;;5070756;28;20050;-40
2021/10/31 01:32:54;;;;;;;31.52;29.33;;;;;;;;;;5068454;28;20045;-41
2021/10/31 01:35:27;;;;;;;32.70;30.45;;;;;;;;;;5069913;28;20431;-41
2021/10/31 01:38:00;;;;;;;33.05;30.52;;;;;;;;;;5068379;28;20046;-42
2021/10/31 01:43:14;;;;;;;29.35;27.10;;;;;;;;;;5066819;28;20914;-43
2021/10/31 01:45:43;;;;;;;29.55;27.20;;;;;;;;;;5048718;28;20037;-40
2021/10/31 01:48:10;;;;;;;31.75;29.45;;;;;;;;;;5057469;28;20035;-43
2021/10/31 01:50:42;;;;;;;32.67;30.08;;;;;;;;;;5049173;28;20362;-41
2021/10/31 01:53:12;;;;;;;31.48;29.15;;;;;;;;;;5047530;28;20055;-42
2021/10/31 01:55:43;;;;;;;31.75;29.55;;;;;;;;;;5046352;28;20068;-42
2021/10/31 01:58:11;;;;;;;35.55;32.80;;;;;;;;;;5046309;28;20491;-43
2021/10/31 02:00:38;;;;;;;28.92;27.20;;;;;;;;;;5051303;28;20037;-42
2021/10/31 02:03:07;;;;;;;32.38;30.08;;;;;;;;;;5046267;28;20041;-42
2021/10/31 02:05:36;;;;;;;36.15;33.05;;;;;;;;;;5037706;28;20025;-40
2021/10/31 02:08:07;;;;;;;33.25;30.58;;;;;;;;;;5040708;28;20037;-42
2021/10/31 02:10:35;;;;;;;33.03;30.63;;;;;;;;;;5047925;28;20056;-40
2021/10/31 02:13:02;;;;;;;32.05;29.90;;;;;;;;;;5041023;28;20045;-42
2021/10/31 02:15:29;;;;;;;30.70;28.33;;;;;;;;;;5045665;28;20048;-42
2021/10/31 02:17:57;;;;;;;32.97;30.08;;;;;;;;;;5038972;28;20048;-41
2021/10/31 02:20:24;;;;;;;32.67;30.45;;;;;;;;;;5046919;28;20119;-41
2021/10/31 02:22:52;;;;;;;31.27;29.23;;;;;;;;;;5046357;28;20037;-41
2021/10/31 02:25:20;;;;;;;30.20;28.08;;;;;;;;;;5081043;28;20082;-41
2021/10/31 02:27:47;;;;;;;30.85;28.88;;;;;;;;;;5046887;28;20091;-41
2021/10/31 02:30:14;;;;;;;31.85;29.77;;;;;;;;;;5053654;28;20526;-42
2021/10/31 02:32:40;;;;;;;29.98;27.88;;;;;;;;;;5041142;28;20042;-42
2021/10/31 02:35:11;;;;;;;31.38;29.27;;;;;;;;;;5039746;28;20416;-43
2021/10/31 02:37:39;;;;;;;30.38;28.70;;;;;;;;;;5053733;28;20508;-40
2021/10/31 02:40:07;;;;;;;29.90;27.92;;;;;;;;;;5045510;28;20045;-45
2021/10/31 02:42:33;;;;;;;34.35;31.88;;;;;;;;;;5042172;28;20588;-42
2021/10/31 02:45:00;;;;;;;32.00;29.75;;;;;;;;;;5044445;28;20509;-40
2021/10/31 02:47:30;;;;;;;32.00;30.05;;;;;;;;;;5037950;28;20029;-42
2021/10/31 02:49:57;;;;;;;33.13;31.08;;;;;;;;;;5045198;28;20049;-42
2021/10/31 02:52:43;;;;;;;35.03;32.35;;;;;;;;;;5043021;28;20049;-41
2021/10/31 02:55:10;;;;;;;33.03;30.38;;;;;;;;;;5046156;28;20080;-42
2021/10/31 02:57:49;;;;;;;32.80;30.30;;;;;;;;;;5034445;28;20048;-42
2021/10/31 03:00:17;;;;;;;29.38;27.67;;;;;;;;;;5030913;28;20100;-41
2021/10/31 03:02:46;;;;;;;31.40;29.05;;;;;;;;;;5016638;28;20125;-41
2021/10/31 03:05:13;;;;;;;34.22;31.92;;;;;;;;;;5031847;28;20041;-41
2021/10/31 03:07:40;;;;;;;29.45;27.38;;;;;;;;;;5031966;28;20505;-42
2021/10/31 03:10:07;;;;;;;33.08;30.83;;;;;;;;;;5031839;28;20037;-41
2021/10/31 03:12:34;;;;;;;33.97;31.80;;;;;;;;;;5025735;28;20045;-40
2021/10/31 03:15:01;;;;;;;32.85;30.73;;;;;;;;;;5028986;28;20054;-42
2021/10/31 03:17:28;;;;;;;30.83;28.98;;;;;;;;;;5030204;28;20120;-41
2021/10/31 03:19:55;;;;;;;32.85;30.77;;;;;;;;;;5030818;28;20068;-44
2021/10/31 03:22:21;;;;;;;29.60;27.83;;;;;;;;;;5032193;28;20065;-42
2021/10/31 03:24:48;;;;;;;34.10;31.55;;;;;;;;;;5029045;28;20044;-40
2021/10/31 03:27:15;;;;;;;32.80;30.85;;;;;;;;;;5032367;28;20095;-42
2021/10/31 03:29:42;;;;;;;30.42;28.55;;;;;;;;;;5032072;28;20034;-41
2021/10/31 03:32:08;;;;;;;32.67;30.52;;;;;;;;;;5033706;28;20038;-42
2021/10/31 03:34:35;;;;;;;30.98;29.20;;;;;;;;;;5034285;28;20044;-44
2021/10/31 03:37:02;;;;;;;31.58;29.50;;;;;;;;;;5030266;28;20064;-41
2021/10/31 03:39:29;;;;;;;30.33;28.35;;;;;;;;;;5028776;28;20049;-41
2021/10/31 03:41:55;;;;;;;30.92;28.90;;;;;;;;;;5032638;28;20042;-41
2021/10/31 03:44:23;;;;;;;30.10;28.15;;;;;;;;;;5032782;28;20099;-42
2021/10/31 03:46:50;;;;;;;32.90;30.50;;;;;;;;;;5028494;28;20103;-41
2021/10/31 03:49:17;;;;;;;30.40;28.40;;;;;;;;;;5030214;28;20671;-43
2021/10/31 03:51:44;;;;;;;29.00;27.00;;;;;;;;;;5035036;28;20106;-41
2021/10/31 03:54:11;;;;;;;29.10;27.23;;;;;;;;;;5023064;28;20469;-41
2021/10/31 03:56:38;;;;;;;26.33;25.00;;;;;;;;;;5031058;28;20045;-42
2021/10/31 03:59:05;;;;;;;26.70;25.02;;;;;;;;;;5028397;28;20473;-41
2021/10/31 04:01:33;;;;;;;27.95;26.48;;;;;;;;;;5031981;28;20049;-41
2021/10/31 04:04:00;;;;;;;25.52;24.27;;;;;;;;;;5030382;28;20045;-40
2021/10/31 04:06:27;;;;;;;27.58;26.23;;;;;;;;;;5029127;28;20041;-40
2021/10/31 04:08:54;;;;;;;26.17;24.65;;;;;;;;;;5030806;28;20049;-42
2021/10/31 04:11:21;;;;;;;26.30;25.00;;;;;;;;;;5029164;28;20065;-41
2021/10/31 04:13:48;;;;;;;26.25;24.77;;;;;;;;;;5031666;28;20041;-41
2021/10/31 04:16:15;;;;;;;29.60;27.83;;;;;;;;;;5029648;28;20033;-42
2021/10/31 04:18:41;;;;;;;30.52;28.50;;;;;;;;;;5030649;28;20377;-41
2021/10/31 04:21:09;;;;;;;28.50;26.33;;;;;;;;;;5032260;28;20045;-42
2021/10/31 04:23:36;;;;;;;30.45;27.77;;;;;;;;;;5033638;28;20037;-42
2021/10/31 04:26:03;;;;;;;31.02;28.85;;;;;;;;;;5036135;28;20037;-43
2021/10/31 04:28:29;;;;;;;27.48;25.92;;;;;;;;;;5028591;28;20041;-41
2021/10/31 04:30:56;;;;;;;29.40;27.35;;;;;;;;;;5029218;28;20127;-40
2021/10/31 04:33:24;;;;;;;28.58;27.08;;;;;;;;;;5030140;28;20045;-40
2021/10/31 04:35:50;;;;;;;30.33;28.67;;;;;;;;;;5022960;28;20057;-44
2021/10/31 04:38:24;;;;;;;29.48;27.63;;;;;;;;;;5031763;28;20049;-42
2021/10/31 04:40:51;;;;;;;29.67;28.30;;;;;;;;;;5027805;28;20054;-42
2021/10/31 04:43:18;;;;;;;29.05;27.52;;;;;;;;;;5027380;28;20405;-41
2021/10/31 04:45:45;;;;;;;27.48;26.13;;;;;;;;;;5021984;28;20370;-40
2021/10/31 04:48:12;;;;;;;26.98;25.75;;;;;;;;;;5024860;28;20103;-42
2021/10/31 04:50:40;;;;;;;31.98;29.27;;;;;;;;;;5035166;28;20037;-41
2021/10/31 04:53:07;;;;;;;27.90;26.35;;;;;;;;;;5032557;28;20068;-43
2021/10/31 04:55:35;;;;;;;26.42;25.02;;;;;;;;;;5030880;28;20056;-41
2021/10/31 04:58:03;;;;;;;29.17;27.02;;;;;;;;;;5029857;28;20047;-41
2021/10/31 05:00:29;;;;;;;27.65;26.20;;;;;;;;;;5029169;28;20053;-43
2021/10/31 05:02:56;;;;;;;28.48;26.58;;;;;;;;;;5023033;28;20038;-40
2021/10/31 05:05:23;;;;;;;27.35;25.73;;;;;;;;;;5026561;28;20420;-42
2021/10/31 05:07:54;;;;;;;28.23;26.55;;;;;;;;;;5030562;28;20045;-42
2021/10/31 05:10:22;;;;;;;26.35;24.83;;;;;;;;;;5027555;28;20448;-42
2021/10/31 05:12:49;;;;;;;24.88;23.60;;;;;;;;;;5027300;28;20041;-42
2021/10/31 05:15:16;;;;;;;23.73;22.40;;;;;;;;;;5029419;28;20053;-40
2021/10/31 05:17:43;;;;;;;23.90;22.25;;;;;;;;;;5035296;28;20041;-41
2021/10/31 05:20:11;;;;;;;26.05;24.63;;;;;;;;;;5028525;28;20095;-43
2021/10/31 05:22:39;;;;;;;26.92;25.25;;;;;;;;;;5029393;28;20128;-42
2021/10/31 05:25:06;;;;;;;29.30;27.15;;;;;;;;;;5028854;28;20029;-42
2021/10/31 05:27:34;;;;;;;29.70;27.85;;;;;;;;;;5029234;28;20504;-41
2021/10/31 05:30:04;;;;;;;31.02;29.08;;;;;;;;;;5020016;28;20380;-41
2021/10/31 05:32:35;;;;;;;33.63;31.58;;;;;;;;;;5031925;28;20041;-43
2021/10/31 05:35:03;;;;;;;30.27;28.33;;;;;;;;;;5027571;28;20410;-41
2021/10/31 05:37:42;;;;;;;32.22;30.20;;;;;;;;;;5030781;28;20544;-43
2021/10/31 05:40:10;;;;;;;31.63;29.35;;;;;;;;;;5028817;28;20120;-41
2021/10/31 05:42:36;;;;;;;32.67;30.75;;;;;;;;;;5022102;28;20049;-41
2021/10/31 05:45:04;;;;;;;31.23;29.17;;;;;;;;;;5025150;28;20112;-41
2021/10/31 05:47:30;;;;;;;27.60;25.90;;;;;;;;;;5028791;28;20508;-40
2021/10/31 05:49:57;;;;;;;28.63;26.80;;;;;;;;;;5028023;28;20439;-41
2021/10/31 05:52:25;;;;;;;27.27;25.77;;;;;;;;;;5028786;28;20045;-43
2021/10/31 05:54:52;;;;;;;31.92;29.50;;;;;;;;;;5030190;28;20429;-54
2021/10/31 05:57:19;;;;;;;35.53;33.13;;;;;;;;;;5029941;28;20029;-54
2021/10/31 05:59:45;;;;;;;30.98;28.45;;;;;;;;;;5028078;28;20037;-54
2021/10/31 06:02:12;;;;;;;88.05;29.40;;;;;;;;;;5028953;28;20049;-54
2021/10/31 06:04:41;;;;;;;66.00;30.08;;;;;;;;;;5029688;28;20037;-54
2021/10/31 06:07:08;;;;;;;36.67;32.55;;;;;;;;;;5027203;28;20066;-54
2021/10/31 06:09:36;;;;;;;36.45;33.67;;;;;;;;;;5030296;28;20535;-54
2021/10/31 06:12:04;;;;;;;34.50;32.15;;;;;;;;;;5028364;28;20422;-52
2021/10/31 06:14:39;;;;;;;33.28;30.90;;;;;;;;;;5029503;28;20046;-53
2021/10/31 06:17:07;;;;;;;29.05;27.33;;;;;;;;;;5028144;28;20037;-54
2021/10/31 06:19:34;;;;;;;25.90;24.63;;;;;;;;;;5027567;28;20037;-53
2021/10/31 06:22:01;;;;;;;26.90;25.05;;;;;;;;;;5027227;28;20049;-54
2021/10/31 06:24:28;;;;;;;28.58;26.58;;;;;;;;;;5022449;28;20030;-54
2021/10/31 06:26:55;;;;;;;33.08;30.40;;;;;;;;;;5027813;28;20048;-54
2021/10/31 06:29:22;;;;;;;32.78;30.13;;;;;;;;;;5027757;28;20064;-54
2021/10/31 06:31:48;;;;;;;53.80;48.17;;;;;;;;;;5032525;28;20045;-51
2021/10/31 06:34:16;;;;;;;37.22;32.05;;;;;;;;;;5032551;28;20551;-53
2021/10/31 06:36:42;;;;;;;87.22;37.00;;;;;;;;;;5025986;28;20119;-51
2021/10/31 06:39:09;;;;;;;60.72;34.53;;;;;;;;;;5022495;28;20386;-54
2021/10/31 06:41:36;;;;;;;105.40;33.72;;;;;;;;;;5027748;28;20049;-53
2021/10/31 06:44:07;;;;;;;127.97;30.52;;;;;;;;;;5032394;28;20044;-54
2021/10/31 06:46:34;;;;;;;101.03;30.55;;;;;;;;;;5031683;28;20030;-54
2021/10/31 06:49:02;;;;;;;67.45;33.55;;;;;;;;;;5028525;28;20687;-53
2021/10/31 06:51:29;;;;;;;134.57;29.27;;;;;;;;;;5025875;28;20042;-54
2021/10/31 06:53:57;;;;;;;77.03;30.85;;;;;;;;;;5026047;28;20087;-54
2021/10/31 06:56:26;;;;;;;104.15;24.75;;;;;;;;;;5015163;28;20389;-53
2021/10/31 06:58:52;;;;;;;49.92;22.13;;;;;;;;;;5032497;28;20509;-51
2021/10/31 07:01:20;;;;;;;64.60;24.00;;;;;;;;;;5021983;28;20568;-54
2021/10/31 07:03:48;;;;;;;54.70;24.52;;;;;;;;;;5027735;28;20129;-54
2021/10/31 07:06:16;;;;;;;24.48;23.40;;;;;;;;;;5026368;28;20042;-50
2021/10/31 07:08:43;;;;;;;24.33;23.42;;;;;;;;;;5033160;28;20428;-51
2021/10/31 07:11:10;;;;;;;27.02;25.73;;;;;;;;;;5029171;28;20061;-54
2021/10/31 07:13:37;;;;;;;24.02;22.83;;;;;;;;;;5026432;28;20091;-54
2021/10/31 07:16:04;;;;;;;24.25;23.13;;;;;;;;;;5031564;28;20096;-54
2021/10/31 07:18:32;;;;;;;24.90;23.85;;;;;;;;;;5023678;28;20127;-54
2021/10/31 07:20:59;;;;;;;24.85;23.60;;;;;;;;;;5017965;28;20050;-55
2021/10/31 07:23:26;;;;;;;23.50;22.33;;;;;;;;;;5028697;28;20049;-54
2021/10/31 07:25:55;;;;;;;22.55;21.13;;;;;;;;;;5030832;28;20038;-51
2021/10/31 07:28:23;;;;;;;20.58;19.48;;;;;;;;;;5014925;28;20112;-52
2021/10/31 07:30:50;;;;;;;25.05;23.75;;;;;;;;;;5026540;28;20037;-54
2021/10/31 07:33:17;;;;;;;25.40;24.00;;;;;;;;;;5022385;28;20441;-54
2021/10/31 07:35:44;;;;;;;66.88;59.92;;;;;;;;;;5027939;28;20129;-54
2021/10/31 07:38:12;;;;;;;31.27;28.92;;;;;;;;;;5030352;28;20062;-55
2021/10/31 07:40:39;;;;;;;33.08;30.73;;;;;;;;;;5030532;28;20060;-54
2021/10/31 07:43:06;;;;;;;37.65;34.60;;;;;;;;;;5029206;28;20041;-52
2021/10/31 07:45:37;;;;;;;34.53;31.95;;;;;;;;;;5024834;28;20072;-53
2021/10/31 07:48:05;;;;;;;33.85;31.08;;;;;;;;;;5027600;28;20049;-54
2021/10/31 07:50:35;;;;;;;33.92;31.52;;;;;;;;;;5030358;28;20088;-54
2021/10/31 07:53:03;;;;;;;30.70;28.85;;;;;;;;;;5030908;28;20483;-54
2021/10/31 07:55:33;;;;;;;31.63;29.38;;;;;;;;;;5030777;28;20037;-54
2021/10/31 07:58:01;;;;;;;30.60;28.38;;;;;;;;;;5026993;28;20577;-54
2021/10/31 08:00:28;;;;;;;34.97;32.58;;;;;;;;;;5026691;28;20057;-54
2021/10/31 08:02:55;;;;;;;32.92;30.23;;;;;;;;;;5032138;28;20037;-54
2021/10/31 08:05:23;;;;;;;36.55;33.55;;;;;;;;;;5029937;28;20041;-54
2021/10/31 08:07:51;;;;;;;36.22;33.50;;;;;;;;;;5030676;28;20485;-54
2021/10/31 08:10:19;;;;;;;33.70;30.77;;;;;;;;;;5030599;28;20379;-48
2021/10/31 08:12:46;;;;;;;28.48;26.98;;;;;;;;;;5029989;28;20037;-53
2021/10/31 08:15:13;;;;;;;23.55;22.25;;;;;;;;;;5017849;28;20112;-54
2021/10/31 08:17:40;;;;;;;20.77;19.83;;;;;;;;;;5029767;28;20037;-51
2021/10/31 08:20:07;;;;;;;21.50;20.40;;;;;;;;;;5031545;28;20069;-53
2021/10/31 08:22:34;;;;;;;22.42;21.25;;;;;;;;;;5036971;28;20047;-54
2021/10/31 08:25:01;;;;;;;19.73;18.92;;;;;;;;;;5029111;28;20041;-54
2021/10/31 08:27:29;;;;;;;20.58;19.67;;;;;;;;;;5020745;28;20061;-54
2021/10/31 08:29:56;;;;;;;20.65;19.65;;;;;;;;;;5024916;28;20056;-53
2021/10/31 08:32:25;;;;;;;21.13;20.02;;;;;;;;;;5013192;28;20472;-54
2021/10/31 08:34:52;;;;;;;19.52;18.55;;;;;;;;;;5030544;28;20042;-54
2021/10/31 08:37:19;;;;;;;21.50;19.95;;;;;;;;;;5026840;28;20061;-54
2021/10/31 08:39:46;;;;;;;19.65;18.42;;;;;;;;;;5027120;28;20049;-54
2021/10/31 08:42:14;;;;;;;22.35;20.55;;;;;;;;;;5030670;28;20521;-54
2021/10/31 08:44:41;;;;;;;17.20;16.27;;;;;;;;;;5029216;28;20071;-54
2021/10/31 08:47:08;;;;;;;19.30;18.20;;;;;;;;;;5028060;28;20046;-54
2021/10/31 08:49:35;;;;;;;23.23;21.60;;;;;;;;;;5029540;28;20446;-52
2021/10/31 08:52:05;;;;;;;23.63;21.40;;;;;;;;;;5029583;28;20041;-54
2021/10/31 08:54:34;;;;;;;22.77;21.38;;;;;;;;;;5030689;28;20041;-51
2021/10/31 08:57:01;;;;;;;22.90;21.35;;;;;;;;;;5025363;28;20045;-53
2021/10/31 08:59:27;;;;;;;20.98;19.60;;;;;;;;;;5026109;28;20445;-52
2021/10/31 09:01:54;;;;;;;19.42;18.13;;;;;;;;;;5016842;28;20056;-53
2021/10/31 09:04:21;;;;;;;14.60;13.90;;;;;;;;;;5030790;28;20045;-52
2021/10/31 09:06:48;;;;;;;13.38;12.77;;;;;;;;;;5024782;28;20034;-52
2021/10/31 09:09:15;;;;;;;13.98;12.90;;;;;;;;;;5018350;28;20053;-53
2021/10/31 09:11:41;;;;;;;41.65;24.88;;;;;;;;;;5026882;28;20132;-53
2021/10/31 09:14:08;;;;;;;11.88;10.75;;;;;;;;;;5029717;28;20041;-53
2021/10/31 09:16:35;;;;;;;10.18;9.65;;;;;;;;;;5029086;28;20052;-53
2021/10/31 09:19:01;;;;;;;9.55;8.95;;;;;;;;;;5026089;28;20038;-53
2021/10/31 09:21:28;;;;;;;16.25;14.73;;;;;;;;;;5028412;28;20058;-53
2021/10/31 09:23:55;;;;;;;51.50;43.55;;;;;;;;;;5028625;28;20049;-52
2021/10/31 09:26:22;;;;;;;138.32;92.40;;;;;;;;;;5030177;28;20033;-52
2021/10/31 09:28:49;;;;;;;14.95;11.65;;;;;;;;;;5027813;28;20033;-53
2021/10/31 09:31:16;;;;;;;11.75;10.88;;;;;;;;;;5029060;28;20033;-53
2021/10/31 09:33:43;;;;;;;8.43;7.72;;;;;;;;;;5029535;28;20041;-51
2021/10/31 09:36:12;;;;;;;9.80;9.13;;;;;;;;;;5028839;28;20061;-53
2021/10/31 09:38:39;;;;;;;9.40;8.63;;;;;;;;;;5021775;28;20041;-53
2021/10/31 09:41:06;;;;;;;40.50;29.77;;;;;;;;;;5029571;28;20037;-52
2021/10/31 09:43:44;;;;;;;11.95;10.90;;;;;;;;;;5025049;28;20042;-52
2021/10/31 09:46:11;;;;;;;22.23;15.13;;;;;;;;;;5026767;28;20386;-51
2021/10/31 09:48:38;;;;;;;13.80;12.60;;;;;;;;;;5020317;28;20041;-52
2021/10/31 09:51:05;;;;;;;7.85;6.63;;;;;;;;;;5015803;28;20046;-52
2021/10/31 09:53:32;;;;;;;8.07;7.50;;;;;;;;;;5025139;28;20053;-53
2021/10/31 09:55:59;;;;;;;6.40;6.10;;;;;;;;;;5018056;28;20137;-49
2021/10/31 09:58:37;;;;;;;8.38;5.53;;;;;;;;;;5022488;28;20072;-53
2021/10/31 10:01:10;;;;;;;10.02;9.60;;;;;;;;;;5023210;28;20042;-52
2021/10/31 10:03:36;;;;;;;9.23;7.83;;;;;;;;;;5018453;28;20477;-53
2021/10/31 10:06:18;;;;;;;6.05;5.68;;;;;;;;;;5027756;28;20049;-52
2021/10/31 10:09:03;;;;;;;9.95;9.35;;;;;;;;;;5025839;28;20160;-52
2021/10/31 10:11:33;;;;;;;5.88;5.57;;;;;;;;;;5033583;28;20037;-53
2021/10/31 10:14:07;;;;;;;16.40;14.75;;;;;;;;;;5026374;28;20049;-53
2021/10/31 10:16:33;;;;;;;8.82;8.05;;;;;;;;;;5018201;28;20470;-51
2021/10/31 10:19:12;;;;;;;5.97;5.63;;;;;;;;;;5024665;28;20065;-53
2021/10/31 10:21:39;;;;;;;4.60;4.30;;;;;;;;;;5030843;28;20493;-49
2021/10/31 10:24:12;;;;;;;5.57;5.15;;;;;;;;;;5030011;28;20087;-52
2021/10/31 10:26:43;;;;;;;6.13;5.72;;;;;;;;;;5024791;28;20037;-52
2021/10/31 10:29:17;;;;;;;10.27;8.43;;;;;;;;;;5037992;28;20042;-53
2021/10/31 10:31:51;;;;;;;6.40;6.00;;;;;;;;;;5027018;28;20406;-51
2021/10/31 10:34:29;;;;;;;5.57;5.20;;;;;;;;;;5032349;28;20045;-52
2021/10/31 10:36:57;;;;;;;8.55;7.78;;;;;;;;;;5031685;28;20045;-52
2021/10/31 10:39:32;;;;;;;7.55;6.88;;;;;;;;;;5025751;28;20084;-53
2021/10/31 10:41:58;;;;;;;8.25;7.20;;;;;;;;;;5035283;28;20057;-50
2021/10/31 10:44:25;;;;;;;8.77;5.60;;;;;;;;;;5024168;28;20734;-53
2021/10/31 10:46:59;;;;;;;6.38;5.85;;;;;;;;;;5033208;28;20037;-52
2021/10/31 10:49:27;;;;;;;7.35;6.75;;;;;;;;;;5030935;28;20037;-53
2021/10/31 10:52:08;;;;;;;5.97;5.47;;;;;;;;;;5029893;28;20034;-51
2021/10/31 10:54:35;;;;;;;5.03;4.63;;;;;;;;;;5033673;28;20124;-52
2021/10/31 10:57:02;;;;;;;4.68;4.22;;;;;;;;;;5024383;28;20049;-52
2021/10/31 10:59:29;;;;;;;4.97;4.57;;;;;;;;;;5026885;28;20158;-53
2021/10/31 11:02:12;;;;;;;5.28;4.88;;;;;;;;;;5029408;28;20037;-53
2021/10/31 11:04:40;;;;;;;3.67;3.47;;;;;;;;;;5025663;28;20045;-52
2021/10/31 11:07:08;;;;;;;6.18;5.70;;;;;;;;;;5025113;28;20041;-53
2021/10/31 11:09:38;;;;;;;5.88;5.53;;;;;;;;;;5031413;28;20034;-53
2021/10/31 11:12:23;;;;;;;3.65;3.35;;;;;;;;;;5031953;28;20033;-54
2021/10/31 11:14:51;;;;;;;10.25;7.82;;;;;;;;;;5028063;28;20047;-53
2021/10/31 11:17:18;;;;;;;3.05;2.25;;;;;;;;;;5037144;28;20048;-53
2021/10/31 11:19:46;;;;;;;3.20;2.90;;;;;;;;;;5023304;28;20115;-54
2021/10/31 11:22:13;;;;;;;1.63;1.52;;;;;;;;;;5029826;28;20049;-51
2021/10/31 11:24:40;;;;;;;2.92;2.25;;;;;;;;;;5016783;28;20038;-52
2021/10/31 11:27:08;;;;;;;3.00;1.85;;;;;;;;;;5030416;28;20405;-54
2021/10/31 11:29:35;;;;;;;1.73;1.63;;;;;;;;;;5027115;28;20037;-54
2021/10/31 11:32:03;;;;;;;1.85;1.20;;;;;;;;;;5028876;28;20045;-49
2021/10/31 11:34:30;;;;;;;1.95;1.85;;;;;;;;;;5027632;28;20064;-54
2021/10/31 11:36:58;;;;;;;1.58;1.48;;;;;;;;;;5033973;28;20041;-55
2021/10/31 11:39:25;;;;;;;1.67;1.10;;;;;;;;;;5031909;28;20132;-54
2021/10/31 11:41:55;;;;;;;3.35;2.10;;;;;;;;;;5028107;28;20080;-54
2021/10/31 11:44:25;;;;;;;1.40;1.20;;;;;;;;;;5030145;28;20517;-54
2021/10/31 11:46:52;;;;;;;1.35;1.10;;;;;;;;;;5031531;28;20034;-54
2021/10/31 11:49:20;;;;;;;2.67;2.55;;;;;;;;;;5031340;28;20568;-53
2021/10/31 11:51:48;;;;;;;3.95;2.53;;;;;;;;;;5030958;28;20033;-54
2021/10/31 11:54:15;;;;;;;1.17;1.17;;;;;;;;;;5031404;28;20461;-54
2021/10/31 11:56:50;;;;;;;1.25;1.15;;;;;;;;;;5029025;28;20147;-53
2021/10/31 11:59:18;;;;;;;1.10;1.10;;;;;;;;;;5031077;28;20092;-54
2021/10/31 12:01:46;;;;;;;1.20;1.10;;;;;;;;;;5029934;28;20045;-54
2021/10/31 12:04:32;;;;;;;1.50;1.40;;;;;;;;;;5030371;28;20038;-53
2021/10/31 12:07:07;;;;;;;1.48;1.38;;;;;;;;;;5026522;28;20042;-53
2021/10/31 12:09:34;;;;;;;1.30;1.20;;;;;;;;;;5029118;28;20132;-54
2021/10/31 12:12:02;;;;;;;1.50;1.40;;;;;;;;;;5031456;28;20045;-47
2021/10/31 12:14:51;;;;;;;1.23;1.23;;;;;;;;;;5024713;28;20038;-54
2021/10/31 12:17:19;;;;;;;1.40;1.30;;;;;;;;;;5025525;28;20057;-55
2021/10/31 12:19:47;;;;;;;1.08;1.05;;;;;;;;;;5029964;28;20504;-54
2021/10/31 12:22:34;;;;;;;1.70;1.60;;;;;;;;;;5031183;28;20115;-52
2021/10/31 12:25:19;;;;;;;2.88;1.42;;;;;;;;;;5029834;28;20351;-52
2021/10/31 12:27:48;;;;;;;1.73;1.63;;;;;;;;;;5030006;28;20041;-54
2021/10/31 12:30:17;;;;;;;1.75;1.65;;;;;;;;;;5028510;28;20036;-54
2021/10/31 12:32:47;;;;;;;1.90;1.80;;;;;;;;;;5030344;28;20064;-52
2021/10/31 12:35:32;;;;;;;2.33;2.13;;;;;;;;;;5030028;28;20448;-53
2021/10/31 12:38:18;;;;;;;2.53;2.42;;;;;;;;;;5024407;28;21098;-53
2021/10/31 12:41:03;;;;;;;2.45;2.35;;;;;;;;;;5028866;28;20051;-54
2021/10/31 12:43:58;;;;;;;2.17;2.08;;;;;;;;;;5030374;28;20433;-54
2021/10/31 12:46:27;;;;;;;3.17;2.92;;;;;;;;;;5028518;28;20575;-54
2021/10/31 12:48:56;;;;;;;3.60;2.42;;;;;;;;;;5030158;28;20041;-53
2021/10/31 12:51:36;;;;;;;5.15;3.10;;;;;;;;;;5027630;28;20041;-55
2021/10/31 12:54:08;;;;;;;1.85;1.80;;;;;;;;;;5021182;28;20063;-55
2021/10/31 12:56:34;;;;;;;1.67;1.67;;;;;;;;;;5030021;28;20128;-52
2021/10/31 12:59:12;;;;;;;2.53;2.38;;;;;;;;;;5028552;28;20096;-54
2021/10/31 13:01:39;;;;;;;2.22;2.13;;;;;;;;;;5017296;28;20041;-53
2021/10/31 13:04:07;;;;;;;2.33;2.05;;;;;;;;;;5029573;28;20041;-55
2021/10/31 13:06:52;;;;;;;3.38;3.17;;;;;;;;;;5016671;28;20108;-50
2021/10/31 13:09:20;;;;;;;3.38;2.85;;;;;;;;;;5014577;28;20050;-55
2021/10/31 13:11:47;;;;;;;3.03;2.40;;;;;;;;;;5025705;28;20030;-54
2021/10/31 13:14:23;;;;;;;3.03;2.83;;;;;;;;;;5029293;28;20497;-48
2021/10/31 13:16:53;;;;;;;2.97;2.78;;;;;;;;;;5029584;28;20414;-52
2021/10/31 13:19:20;;;;;;;2.90;2.78;;;;;;;;;;5028171;28;20083;-54
2021/10/31 13:21:47;;;;;;;3.80;2.70;;;;;;;;;;5016548;28;20046;-55
2021/10/31 13:24:15;;;;;;;2.90;2.72;;;;;;;;;;5026420;28;20125;-54
2021/10/31 13:26:42;;;;;;;2.95;2.83;;;;;;;;;;5029905;28;20042;-54
2021/10/31 13:29:09;;;;;;;2.47;2.47;;;;;;;;;;5028621;28;20041;-52
2021/10/31 13:31:35;;;;;;;2.30;2.20;;;;;;;;;;5022968;28;20033;-54
2021/10/31 13:34:07;;;;;;;3.95;3.70;;;;;;;;;;5030511;28;20034;-54
2021/10/31 13:36:37;;;;;;;9.07;8.38;;;;;;;;;;5027488;28;20040;-54
2021/10/31 13:39:10;;;;;;;4.82;3.00;;;;;;;;;;5027625;28;20046;-53
2021/10/31 13:41:37;;;;;;;2.88;2.70;;;;;;;;;;5029569;28;20045;-54
2021/10/31 13:44:03;;;;;;;3.65;3.45;;;;;;;;;;5024569;28;20033;-53
2021/10/31 13:46:32;;;;;;;3.08;2.97;;;;;;;;;;5021351;28;20045;-54
2021/10/31 13:49:04;;;;;;;5.20;3.28;;;;;;;;;;5023328;28;20848;-54
2021/10/31 13:51:31;;;;;;;6.60;4.28;;;;;;;;;;5014103;28;20057;-54
2021/10/31 13:53:59;;;;;;;4.32;3.92;;;;;;;;;;5028871;28;20064;-54
2021/10/31 13:56:26;;;;;;;4.20;4.10;;;;;;;;;;5027235;28;20069;-54
2021/10/31 13:58:58;;;;;;;5.05;4.72;;;;;;;;;;5025425;28;20030;-53
2021/10/31 14:01:39;;;;;;;6.47;6.07;;;;;;;;;;5024640;28;20069;-54
2021/10/31 14:04:06;;;;;;;6.15;5.72;;;;;;;;;;5021024;28;20038;-54
2021/10/31 14:06:33;;;;;;;7.10;6.22;;;;;;;;;;5029416;28;20100;-54
2021/10/31 14:09:00;;;;;;;5.82;5.47;;;;;;;;;;5028693;28;20045;-54
2021/10/31 14:11:28;;;;;;;7.40;7.00;;;;;;;;;;5026038;28;20085;-54
2021/10/31 14:13:55;;;;;;;6.97;6.57;;;;;;;;;;5025393;28;20040;-54
2021/10/31 14:16:28;;;;;;;8.52;7.50;;;;;;;;;;5014225;28;20099;-54
2021/10/31 14:19:15;;;;;;;6.28;5.78;;;;;;;;;;5027416;28;20051;-54
2021/10/31 14:21:58;;;;;;;4.45;4.22;;;;;;;;;;5026505;28;20476;-53
2021/10/31 14:24:24;;;;;;;3.57;3.37;;;;;;;;;;5022656;28;20426;-54
2021/10/31 14:26:51;;;;;;;7.53;7.03;;;;;;;;;;5019065;28;20125;-52
2021/10/31 14:29:25;;;;;;;6.63;6.32;;;;;;;;;;5022542;28;20068;-54
2021/10/31 14:31:52;;;;;;;4.68;4.47;;;;;;;;;;5022008;28;20465;-54
2021/10/31 14:34:19;;;;;;;5.07;4.88;;;;;;;;;;5024556;28;20038;-54
2021/10/31 14:36:46;;;;;;;6.70;6.22;;;;;;;;;;5029910;28;20048;-54
2021/10/31 14:39:13;;;;;;;5.95;5.57;;;;;;;;;;5028475;28;20552;-54
2021/10/31 14:41:40;;;;;;;4.78;4.55;;;;;;;;;;5030517;28;20044;-53